Arbalist — J8B3636 — position and weather

sailwx.info

Track history (hours):
 
Tides and Currents Weather Stations Pressure Air Temp Water Temp Dewpoint Dewpoint Depression Visibility Wind Speed Wind Dir Waves Ship Positions

Arbalist

Last reported at 2014-Oct-15 14:31 UTC. Time now 2014-Oct-24 08:32 UTC.
Position N 40°28' E 026°51'.
Warning: this ship's position is 8 days out of date.

Length 115 m; draft 4.5 m.

Type: Cargo ship. MMSI: 37579300.

Date/timePositionNaut miles runAvg speedWind from/ knotsBaromVisibWave heightAir tempDewpointWater temp
2014-Oct-15 14:31N 40°28' E 026°51'28 9.0
2014-Oct-15 11:25N 40°09' E 026°24'22 7.5
2014-Oct-15 08:27N 39°57' E 025°59'8 8.6
2014-Oct-15 07:29N 39°51' E 025°52'6 1.8
2014-Oct-15 04:04N 39°46' E 025°57'7 8.0
2014-Oct-15 03:09N 39°49' E 025°48'4 7.3
2014-Oct-15 02:32N 39°50' E 025°43'9 8.0
2014-Oct-15 01:24N 39°44' E 025°34'8 8.5
2014-Oct-15 00:25N 39°39' E 025°25'8 8.9
2014-Oct-14 23:32N 39°34' E 025°17'  
Track history (hours):
 
Tides and Currents Weather Stations Pressure Air Temp Water Temp Dewpoint Dewpoint Depression Visibility Wind Speed Wind Dir Waves Ship Positions

Arbalist

Last reported at 2014-Oct-15 14:31 UTC. Time now 2014-Oct-24 08:32 UTC.
Position N 40°28' E 026°51'.
Warning: this ship's position is 8 days out of date.

Length 115 m; draft 4.5 m.

Type: Cargo ship. MMSI: 37579300.

Date/timePositionNaut miles runAvg speedWind from/ knotsBaromVisibWave heightAir tempDewpointWater temp
2014-Oct-15 14:31N 40°28' E 026°51'28 9.0
2014-Oct-15 11:25N 40°09' E 026°24'22 7.5
2014-Oct-15 08:27N 39°57' E 025°59'8 8.6
2014-Oct-15 07:29N 39°51' E 025°52'6 1.8
2014-Oct-15 04:04N 39°46' E 025°57'7 8.0
2014-Oct-15 03:09N 39°49' E 025°48'4 7.3
2014-Oct-15 02:32N 39°50' E 025°43'9 8.0
2014-Oct-15 01:24N 39°44' E 025°34'8 8.5
2014-Oct-15 00:25N 39°39' E 025°25'8 8.9
2014-Oct-14 23:32N 39°34' E 025°17'  

Dump ship's entire track history